Time;durP1;ratioP1;P1;durP2;ratioP2;P2;SDS_P1;SDS_P2;PMS_P1;PMS_P2;Temp;Humidity;BMP_temperature;BMP_pressure;BME280_temperature;BME280_humidity;BME280_pressure;Samples;Min_cycle;Max_cycle;Signal;HPM_P1;HPM_P2
2023/09/10 00:00:20;;;;;;;;;;;;;;;17.00;44.76;101115.25;5076935;28;1197;-61
2023/09/10 00:02:46;;;;;;;;;;;;;;;18.00;45.76;101118.81;5067548;28;1078;-65
2023/09/10 00:05:11;;;;;;;;;;;;;;;17.41;46.34;101114.59;5042243;28;1954;-65
2023/09/10 00:07:37;;;;;;;;;;;;;;;17.22;45.94;101106.84;5067380;28;892;-64
2023/09/10 00:10:02;;;;;;;;;;;;;;;17.10;45.19;101109.00;5073900;28;1121;-64
2023/09/10 00:12:28;;;;;;;;;;;;;;;17.04;45.02;101110.91;5066463;28;1221;-64
2023/09/10 00:14:53;;;;;;;;;;;;;;;17.66;45.96;101110.25;5077086;28;1103;-66
2023/09/10 00:17:19;;;;;;;;;;;;;;;17.34;45.96;101120.34;5077065;28;1078;-64
2023/09/10 00:19:44;;;;;;;;;;;;;;;17.19;45.33;101120.28;5073012;28;906;-63
2023/09/10 00:22:10;;;;;;;;;;;;;;;17.10;44.93;101118.03;5067615;28;1323;-63
2023/09/10 00:24:35;;;;;;;;;;;;;;;16.93;45.08;101125.69;5062171;28;1910;-63
2023/09/10 00:27:01;;;;;;;;;;;;;;;17.66;45.75;101122.06;5056741;28;1074;-65
2023/09/10 00:29:26;;;;;;;;;;;;;;;17.26;46.08;101120.84;5071436;28;1101;-64
2023/09/10 00:31:52;;;;;;;;;;;;;;;17.12;45.66;101123.28;5056566;28;1381;-63
2023/09/10 00:34:17;;;;;;;;;;;;;;;17.03;45.15;101120.22;5051983;28;1641;-65
2023/09/10 00:36:43;;;;;;;;;;;;;;;16.94;45.08;101116.31;5065309;28;1008;-65
2023/09/10 00:39:08;;;;;;;;;;;;;;;17.84;45.43;101119.88;5058446;28;1575;-64
2023/09/10 00:41:34;;;;;;;;;;;;;;;17.28;46.24;101122.25;5049540;28;1612;-63
2023/09/10 00:44:00;;;;;;;;;;;;;;;17.14;45.51;101123.84;5075500;28;1909;-63
2023/09/10 00:46:25;;;;;;;;;;;;;;;17.02;45.18;101129.53;5050021;28;1551;-64
2023/09/10 00:48:51;;;;;;;;;;;;;;;16.99;44.76;101129.28;5051716;28;1206;-65
2023/09/10 00:51:16;;;;;;;;;;;;;;;17.00;44.46;101125.41;5049661;28;1295;-64
2023/09/10 00:53:42;;;;;;;;;;;;;;;17.90;45.42;101133.34;5039427;28;2336;-64
2023/09/10 00:56:07;;;;;;;;;;;;;;;17.35;45.82;101137.63;5046624;28;1202;-63
2023/09/10 00:58:33;;;;;;;;;;;;;;;17.09;45.61;101137.56;5060847;28;1093;-64
2023/09/10 01:00:59;;;;;;;;;;;;;;;17.90;45.83;101136.09;5064662;28;1123;-64
2023/09/10 01:03:24;;;;;;;;;;;;;;;17.34;46.46;101144.25;5060798;28;1221;-64
2023/09/10 01:05:51;;;;;;;;;;;;;;;17.17;45.56;101130.72;5064408;28;1909;-63
2023/09/10 01:08:16;;;;;;;;;;;;;;;17.54;45.84;101137.97;5073050;28;1011;-65
2023/09/10 01:10:43;;;;;;;;;;;;;;;17.54;46.40;101129.72;5065189;28;1047;-64
2023/09/10 01:13:15;;;;;;;;;;;;;;;17.31;45.82;101129.13;5055156;28;1062;-62
2023/09/10 01:15:41;;;;;;;;;;;;;;;17.12;45.32;101137.00;5048719;28;1139;-63
2023/09/10 01:18:15;;;;;;;;;;;;;;;17.06;44.77;101136.16;5073544;28;1039;-62
2023/09/10 01:20:56;;;;;;;;;;;;;;;17.22;45.06;101127.97;5075655;28;1130;-64
2023/09/10 01:23:22;;;;;;;;;;;;;;;17.56;46.15;101136.63;5076008;28;1178;-63
2023/09/10 01:25:48;;;;;;;;;;;;;;;17.20;46.16;101138.44;5051365;28;2564;-63
2023/09/10 01:28:13;;;;;;;;;;;;;;;17.18;45.09;101135.94;5044697;28;1063;-64
2023/09/10 01:30:39;;;;;;;;;;;;;;;17.06;44.98;101129.84;5069211;28;1085;-63
2023/09/10 01:33:18;;;;;;;;;;;;;;;16.96;44.62;101138.88;5057462;28;1123;-63
2023/09/10 01:35:44;;;;;;;;;;;;;;;17.02;44.38;101139.72;5061570;28;1075;-64
2023/09/10 01:38:13;;;;;;;;;;;;;;;17.64;45.55;101140.75;5045043;28;1117;-62
2023/09/10 01:40:43;;;;;;;;;;;;;;;17.22;45.74;101133.47;5062076;28;1075;-62
2023/09/10 01:43:08;;;;;;;;;;;;;;;17.07;45.28;101137.81;5066365;28;832;-62
2023/09/10 01:45:34;;;;;;;;;;;;;;;17.81;45.85;101136.94;5052182;28;1902;-63
2023/09/10 01:48:00;;;;;;;;;;;;;;;17.39;45.96;101138.75;5049381;28;992;-63
2023/09/10 01:50:26;;;;;;;;;;;;;;;17.16;45.70;101137.31;5050669;28;1523;-64
2023/09/10 01:52:52;;;;;;;;;;;;;;;17.09;45.14;101138.38;5047047;28;1054;-63
2023/09/10 01:55:17;;;;;;;;;;;;;;;17.10;44.63;101131.78;5072781;28;2690;-63
2023/09/10 01:57:43;;;;;;;;;;;;;;;17.03;44.18;101142.19;5061654;28;1408;-63
2023/09/10 02:00:09;;;;;;;;;;;;;;;16.98;44.15;101139.41;5048011;28;1209;-64
2023/09/10 02:02:37;;;;;;;;;;;;;;;16.99;44.51;101137.50;5070648;28;1038;-64
2023/09/10 02:05:03;;;;;;;;;;;;;;;17.64;45.70;101135.25;5074208;28;1926;-63
2023/09/10 02:07:29;;;;;;;;;;;;;;;17.14;45.98;101131.25;5077687;28;861;-63
2023/09/10 02:09:55;;;;;;;;;;;;;;;17.99;46.10;101136.41;5065758;28;1102;-63
2023/09/10 02:12:20;;;;;;;;;;;;;;;17.51;46.52;101131.09;5070344;28;1058;-63
2023/09/10 02:14:48;;;;;;;;;;;;;;;17.28;46.12;101126.91;5072845;28;1047;-63
2023/09/10 02:17:14;;;;;;;;;;;;;;;17.18;45.75;101124.97;5050476;28;1329;-63
2023/09/10 02:19:39;;;;;;;;;;;;;;;17.14;44.84;101125.75;5052560;28;1095;-63
2023/09/10 02:22:05;;;;;;;;;;;;;;;17.03;44.73;101127.66;5069734;28;1014;-62
2023/09/10 02:24:30;;;;;;;;;;;;;;;18.15;45.64;101123.50;5047837;28;1927;-63
2023/09/10 02:26:56;;;;;;;;;;;;;;;17.47;46.37;101118.97;5059242;28;1044;-63
2023/09/10 02:29:21;;;;;;;;;;;;;;;17.31;45.77;101126.38;5072247;28;1008;-63
2023/09/10 02:31:47;;;;;;;;;;;;;;;17.15;45.62;101127.41;5067619;28;901;-63
2023/09/10 02:34:12;;;;;;;;;;;;;;;17.67;45.72;101131.97;5047476;28;1094;-63
2023/09/10 02:36:38;;;;;;;;;;;;;;;17.46;46.37;101125.59;5052627;28;1031;-63
2023/09/10 02:39:04;;;;;;;;;;;;;;;17.22;45.97;101133.47;5058861;28;1054;-63
2023/09/10 02:41:29;;;;;;;;;;;;;;;17.14;45.38;101131.25;5066749;28;1206;-62
2023/09/10 02:43:55;;;;;;;;;;;;;;;18.20;45.71;101136.44;5048671;28;1976;-63
2023/09/10 02:46:20;;;;;;;;;;;;;;;17.48;46.41;101128.06;5048547;28;1708;-63
2023/09/10 02:48:46;;;;;;;;;;;;;;;17.32;45.76;101129.94;5045663;28;1117;-64
2023/09/10 02:51:12;;;;;;;;;;;;;;;17.16;45.42;101131.81;5028342;28;1226;-63
2023/09/10 02:53:37;;;;;;;;;;;;;;;17.18;44.84;101126.88;5071430;28;2416;-65
2023/09/10 02:56:03;;;;;;;;;;;;;;;18.15;45.34;101122.69;5073724;28;899;-64
2023/09/10 02:58:29;;;;;;;;;;;;;;;17.48;46.36;101130.81;5047211;28;1355;-64
2023/09/10 03:00:54;;;;;;;;;;;;;;;17.36;45.71;101131.91;5052607;28;1261;-62
2023/09/10 03:03:20;;;;;;;;;;;;;;;17.12;45.47;101134.25;5057911;28;1111;-63
2023/09/10 03:05:46;;;;;;;;;;;;;;;17.10;44.78;101136.47;5065833;28;1913;-63
2023/09/10 03:08:11;;;;;;;;;;;;;;;18.07;45.78;101135.88;5059650;28;1292;-63
2023/09/10 03:10:37;;;;;;;;;;;;;;;17.46;46.42;101131.09;5071054;28;1067;-63
2023/09/10 03:13:02;;;;;;;;;;;;;;;17.24;45.94;101132.13;5034952;28;1111;-62
2023/09/10 03:15:28;;;;;;;;;;;;;;;17.19;45.46;101131.28;5060206;28;1114;-66
2023/09/10 03:17:53;;;;;;;;;;;;;;;17.16;44.89;101138.13;5073862;28;1773;-66
2023/09/10 03:20:19;;;;;;;;;;;;;;;17.07;44.76;101132.31;5070230;28;889;-66
2023/09/10 03:22:44;;;;;;;;;;;;;;;17.25;45.08;101124.69;5040027;28;1195;-65
2023/09/10 03:25:10;;;;;;;;;;;;;;;17.70;46.16;101127.84;5039656;28;2498;-66
2023/09/10 03:27:36;;;;;;;;;;;;;;;17.36;46.14;101129.16;5040361;28;1000;-65
2023/09/10 03:30:02;;;;;;;;;;;;;;;17.26;45.73;101134.59;5058130;28;1003;-63
2023/09/10 03:32:28;;;;;;;;;;;;;;;17.08;45.44;101133.16;5040951;28;1235;-62
2023/09/10 03:34:53;;;;;;;;;;;;;;;17.03;45.21;101139.44;5052174;28;1151;-63
2023/09/10 03:37:18;;;;;;;;;;;;;;;17.03;44.74;101141.38;5070779;28;1245;-62
2023/09/10 03:39:44;;;;;;;;;;;;;;;17.18;45.09;101146.94;5056442;28;1229;-63
2023/09/10 03:42:10;;;;;;;;;;;;;;;17.43;45.93;101146.22;5053000;28;1208;-62
2023/09/10 03:44:36;;;;;;;;;;;;;;;17.14;45.80;101136.75;5069584;28;1917;-62
2023/09/10 03:47:02;;;;;;;;;;;;;;;17.16;45.54;101140.88;5059322;28;1186;-62
2023/09/10 03:49:29;;;;;;;;;;;;;;;17.08;45.17;101144.97;5053104;28;1150;-57
2023/09/10 03:51:56;;;;;;;;;;;;;;;16.99;45.20;101138.34;5052248;28;1418;-58
2023/09/10 03:54:21;;;;;;;;;;;;;;;16.90;44.98;101138.03;5057482;28;2622;-60
2023/09/10 03:56:47;;;;;;;;;;;;;;;16.90;44.76;101143.50;5052345;28;2083;-59
2023/09/10 03:59:13;;;;;;;;;;;;;;;17.82;45.29;101152.34;5039029;28;1273;-60
2023/09/10 04:01:38;;;;;;;;;;;;;;;17.20;46.44;101152.16;5052569;28;1424;-56
2023/09/10 04:04:04;;;;;;;;;;;;;;;17.13;45.89;101154.34;5045763;28;1968;-61
2023/09/10 04:06:29;;;;;;;;;;;;;;;17.08;45.35;101158.72;5045546;28;1122;-59
2023/09/10 04:08:55;;;;;;;;;;;;;;;18.03;45.86;101169.72;5062543;28;835;-58
2023/09/10 04:11:21;;;;;;;;;;;;;;;17.37;46.74;101169.25;5057056;28;1135;-58
2023/09/10 04:13:46;;;;;;;;;;;;;;;17.22;46.38;101166.47;5035824;28;1132;-58
2023/09/10 04:16:12;;;;;;;;;;;;;;;17.17;45.58;101169.19;5068960;28;1191;-57
2023/09/10 04:18:37;;;;;;;;;;;;;;;16.99;45.86;101170.47;5039126;28;1569;-59
2023/09/10 04:21:06;;;;;;;;;;;;;;;17.12;45.68;101171.91;5039951;28;1073;-59
2023/09/10 04:23:31;;;;;;;;;;;;;;;17.50;46.72;101167.97;5070839;28;2427;-61
2023/09/10 04:25:57;;;;;;;;;;;;;;;17.19;46.64;101161.50;5042358;28;1906;-60
2023/09/10 04:28:23;;;;;;;;;;;;;;;17.08;46.17;101155.97;5053552;28;1231;-62
2023/09/10 04:30:49;;;;;;;;;;;;;;;17.13;45.49;101159.84;5074081;28;1094;-61
2023/09/10 04:33:16;;;;;;;;;;;;;;;17.12;45.27;101155.44;5056268;28;1386;-58
2023/09/10 04:35:47;;;;;;;;;;;;;;;16.97;45.40;101153.44;5055003;28;1369;-68
2023/09/10 04:38:12;;;;;;;;;;;;;;;17.82;46.08;101158.66;5045753;28;1233;-62
2023/09/10 04:40:39;;;;;;;;;;;;;;;17.34;46.85;101158.00;5049725;28;1441;-59
2023/09/10 04:43:05;;;;;;;;;;;;;;;18.30;45.54;101173.03;5058217;28;1312;-58
2023/09/10 04:45:31;;;;;;;;;;;;;;;17.94;46.68;101164.75;5056843;28;1906;-58
2023/09/10 04:47:57;;;;;;;;;;;;;;;17.77;47.18;101166.91;5056177;28;1289;-58
2023/09/10 04:50:22;;;;;;;;;;;;;;;17.62;47.93;101167.69;5057779;28;1610;-59
2023/09/10 04:52:48;;;;;;;;;;;;;;;17.56;48.22;101166.84;5075080;28;1383;-59
2023/09/10 04:55:15;;;;;;;;;;;;;;;17.46;48.51;101166.84;5073733;28;1819;-59
2023/09/10 04:57:41;;;;;;;;;;;;;;;17.40;49.02;101166.00;5040217;28;1001;-60
2023/09/10 05:00:09;;;;;;;;;;;;;;;17.30;49.18;101163.19;5073105;28;1343;-61
2023/09/10 05:02:34;;;;;;;;;;;;;;;17.24;49.68;101167.84;5039287;28;1103;-58
2023/09/10 05:05:00;;;;;;;;;;;;;;;17.22;49.59;101164.56;5057986;28;1979;-59
2023/09/10 05:07:25;;;;;;;;;;;;;;;17.16;49.95;101167.53;5057391;28;1026;-59
2023/09/10 05:09:51;;;;;;;;;;;;;;;17.09;50.09;101174.09;5050237;28;1160;-59
2023/09/10 05:12:16;;;;;;;;;;;;;;;17.03;50.40;101171.59;5068915;28;1147;-60
2023/09/10 05:14:42;;;;;;;;;;;;;;;17.01;50.40;101169.13;5064009;28;1269;-60
2023/09/10 05:17:07;;;;;;;;;;;;;;;16.97;50.54;101176.25;5044280;28;1312;-59
2023/09/10 05:19:33;;;;;;;;;;;;;;;16.91;51.00;101171.81;5076123;28;1038;-61
2023/09/10 05:21:59;;;;;;;;;;;;;;;16.88;50.90;101169.56;5069458;28;1192;-60
2023/09/10 05:24:25;;;;;;;;;;;;;;;16.85;51.27;101175.59;5054513;28;2253;-61
2023/09/10 05:26:51;;;;;;;;;;;;;;;16.80;51.39;101175.56;5049381;28;1358;-57
2023/09/10 05:29:16;;;;;;;;;;;;;;;16.74;51.54;101172.75;5051100;28;1225;-60
2023/09/10 05:31:42;;;;;;;;;;;;;;;16.83;51.22;101180.50;5075732;28;1035;-63
2023/09/10 05:34:07;;;;;;;;;;;;;;;16.68;51.62;101176.59;5061789;28;1146;-65
2023/09/10 05:36:34;;;;;;;;;;;;;;;16.69;51.57;101182.88;5068739;28;1014;-60
2023/09/10 05:39:00;;;;;;;;;;;;;;;16.64;51.56;101183.69;5050459;28;1265;-59
2023/09/10 05:41:26;;;;;;;;;;;;;;;16.58;51.89;101176.53;5040811;28;1337;-63
2023/09/10 05:43:51;;;;;;;;;;;;;;;16.53;51.79;101181.97;5038383;28;1989;-60
2023/09/10 05:46:17;;;;;;;;;;;;;;;16.58;51.88;101187.50;5045926;28;981;-63
2023/09/10 05:48:43;;;;;;;;;;;;;;;16.51;51.80;101186.88;5074231;28;1018;-59
2023/09/10 05:51:08;;;;;;;;;;;;;;;16.53;51.86;101187.47;5067364;28;1281;-62
2023/09/10 05:53:34;;;;;;;;;;;;;;;16.51;52.11;101187.72;5065429;28;2243;-61
2023/09/10 05:56:02;;;;;;;;;;;;;;;16.51;52.08;101195.13;5057251;28;1123;-59
2023/09/10 05:58:28;;;;;;;;;;;;;;;16.42;52.19;101190.13;5041782;28;1238;-58
2023/09/10 06:00:53;;;;;;;;;;;;;;;16.46;52.13;101203.31;5074522;28;1011;-61
2023/09/10 06:03:19;;;;;;;;;;;;;;;16.41;52.20;101201.34;5056164;28;1103;-60
2023/09/10 06:05:44;;;;;;;;;;;;;;;16.37;52.19;101209.28;5049276;28;1941;-63
2023/09/10 06:08:10;;;;;;;;;;;;;;;16.39;52.18;101209.03;5061150;28;1382;-60
2023/09/10 06:10:36;;;;;;;;;;;;;;;16.38;52.14;101208.22;5045747;28;1414;-61
2023/09/10 06:13:01;;;;;;;;;;;;;;;17.17;51.20;101211.25;5060237;28;1132;-61
2023/09/10 06:15:27;;;;;;;;;;;;;;;17.27;51.10;101215.97;5063302;28;1207;-61
2023/09/10 06:17:53;;;;;;;;;;;;;;;16.91;52.04;101224.00;5045970;28;1474;-61
2023/09/10 06:20:18;;;;;;;;;;;;;;;16.75;52.33;101218.38;5046503;28;1395;-61
2023/09/10 06:22:44;;;;;;;;;;;;;;;16.68;52.78;101226.00;5067049;28;1177;-61
2023/09/10 06:25:09;;;;;;;;;;;;;;;16.60;52.67;101226.50;5040579;28;1914;-60
2023/09/10 06:27:35;;;;;;;;;;;;;;;16.62;52.76;101221.59;5050423;28;1552;-60
2023/09/10 06:30:00;;;;;;;;;;;;;;;16.55;52.50;101223.69;5042911;28;1268;-60
2023/09/10 06:32:26;;;;;;;;;;;;;;;16.52;52.49;101219.59;5069366;28;1110;-60
2023/09/10 06:34:51;;;;;;;;;;;;;;;16.53;52.58;101214.91;5067912;28;1323;-60
2023/09/10 06:37:17;;;;;;;;;;;;;;;16.51;52.83;101228.06;5064993;28;1171;-58
2023/09/10 06:39:44;;;;;;;;;;;;;;;16.48;52.82;101231.31;5047242;28;1490;-60
2023/09/10 06:42:10;;;;;;;;;;;;;;;16.46;52.56;101211.56;5054102;28;1271;-61
2023/09/10 06:44:42;;;;;;;;;;;;;;;16.46;52.86;101217.06;5050726;28;1910;-62
2023/09/10 06:47:08;;;;;;;;;;;;;;;16.47;52.69;101221.47;5072328;28;1064;-62
2023/09/10 06:49:33;;;;;;;;;;;;;;;16.47;53.01;101224.22;5059762;28;1366;-63
2023/09/10 06:51:59;;;;;;;;;;;;;;;16.39;53.03;101231.81;5076634;28;1135;-63
2023/09/10 06:54:25;;;;;;;;;;;;;;;16.34;53.15;101234.53;5075315;28;2486;-63
2023/09/10 06:56:50;;;;;;;;;;;;;;;16.37;53.21;101234.00;5077112;28;1101;-61
2023/09/10 06:59:17;;;;;;;;;;;;;;;16.39;53.30;101234.53;5072197;28;1293;-64
2023/09/10 07:01:42;;;;;;;;;;;;;;;16.32;53.43;101231.19;5078051;28;1118;-61
2023/09/10 07:04:15;;;;;;;;;;;;;;;16.29;53.38;101231.72;5059988;28;1988;-64
2023/09/10 07:06:40;;;;;;;;;;;;;;;16.49;53.38;101236.56;5075881;28;1062;-63
2023/09/10 07:09:06;;;;;;;;;;;;;;;17.52;51.69;101228.16;5077002;28;1292;-63
2023/09/10 07:11:31;;;;;;;;;;;;;;;16.98;53.10;101229.25;5075379;28;1069;-67
2023/09/10 07:13:57;;;;;;;;;;;;;;;16.79;53.53;101234.31;5057965;28;1122;-60
2023/09/10 07:16:23;;;;;;;;;;;;;;;16.73;53.72;101236.19;5070641;28;1055;-57
2023/09/10 07:18:48;;;;;;;;;;;;;;;16.66;53.77;101244.69;5066409;28;1078;-59
2023/09/10 07:21:14;;;;;;;;;;;;;;;16.68;53.49;101242.47;5063739;28;1003;-57
2023/09/10 07:23:39;;;;;;;;;;;;;;;16.62;53.73;101250.94;5059693;28;2398;-58
2023/09/10 07:26:05;;;;;;;;;;;;;;;16.58;53.62;101250.66;5077550;28;1905;-58
2023/09/10 07:28:30;;;;;;;;;;;;;;;16.56;53.65;101239.09;5064524;28;1043;-57
2023/09/10 07:30:56;;;;;;;;;;;;;;;16.46;53.89;101245.31;5064440;28;1082;-57
2023/09/10 07:33:21;;;;;;;;;;;;;;;16.50;53.74;101246.44;5077159;28;1154;-61
2023/09/10 07:35:47;;;;;;;;;;;;;;;16.48;53.75;101240.41;5074946;28;1248;-58
2023/09/10 07:38:12;;;;;;;;;;;;;;;16.47;53.98;101251.66;5058192;28;1309;-58
2023/09/10 07:40:38;;;;;;;;;;;;;;;16.43;53.79;101254.09;5058251;28;999;-58
2023/09/10 07:43:03;;;;;;;;;;;;;;;16.39;53.94;101251.00;5069943;28;998;-58
2023/09/10 07:45:29;;;;;;;;;;;;;;;16.36;54.02;101245.25;5058045;28;1911;-57
2023/09/10 07:47:56;;;;;;;;;;;;;;;16.40;54.01;101252.69;5069834;28;1138;-62
2023/09/10 07:50:22;;;;;;;;;;;;;;;17.61;52.96;101248.53;5070510;28;1126;-58
2023/09/10 07:52:48;;;;;;;;;;;;;;;17.21;53.72;101253.59;5069088;28;1280;-58
2023/09/10 07:55:13;;;;;;;;;;;;;;;16.93;54.15;101246.53;5057708;28;2878;-60
2023/09/10 07:57:39;;;;;;;;;;;;;;;16.81;54.38;101249.44;5075211;28;1141;-61
2023/09/10 08:00:06;;;;;;;;;;;;;;;16.77;54.50;101249.16;5075826;28;1112;-59
2023/09/10 08:02:37;;;;;;;;;;;;;;;16.71;54.41;101261.16;5065092;28;1032;-60
2023/09/10 08:05:02;;;;;;;;;;;;;;;16.65;54.48;101259.50;5075908;28;1968;-60
2023/09/10 08:07:28;;;;;;;;;;;;;;;16.60;54.42;101267.69;5076997;28;1114;-61
2023/09/10 08:09:53;;;;;;;;;;;;;;;16.60;54.32;101264.94;5074992;28;1287;-62
2023/09/10 08:12:19;;;;;;;;;;;;;;;16.60;54.21;101271.22;5066657;28;1320;-62
2023/09/10 08:14:44;;;;;;;;;;;;;;;16.54;54.33;101277.78;5075061;28;1059;-59
2023/09/10 08:17:10;;;;;;;;;;;;;;;16.48;54.18;101270.59;5072827;28;1158;-59
2023/09/10 08:19:35;;;;;;;;;;;;;;;16.45;54.09;101265.63;5071113;28;1122;-57
2023/09/10 08:22:01;;;;;;;;;;;;;;;16.42;54.28;101264.25;5068217;28;1080;-56
2023/09/10 08:24:26;;;;;;;;;;;;;;;16.42;54.09;101257.91;5069055;28;2276;-56
2023/09/10 08:26:52;;;;;;;;;;;;;;;16.43;54.21;101256.81;5071930;28;1106;-50
2023/09/10 08:29:17;;;;;;;;;;;;;;;16.41;54.09;101264.47;5071745;28;1370;-56
2023/09/10 08:31:43;;;;;;;;;;;;;;;16.39;54.23;101259.25;5073881;28;1129;-60
2023/09/10 08:34:08;;;;;;;;;;;;;;;16.37;54.07;101266.94;5071252;28;1308;-61
2023/09/10 08:36:34;;;;;;;;;;;;;;;16.39;54.01;101258.44;5068910;28;1034;-61
2023/09/10 08:38:59;;;;;;;;;;;;;;;16.37;54.00;101264.19;5070065;28;1281;-62
2023/09/10 08:41:27;;;;;;;;;;;;;;;16.74;54.18;101255.16;5064184;28;1419;-62
2023/09/10 08:43:59;;;;;;;;;;;;;;;17.50;53.70;101249.59;5063642;28;1909;-67
2023/09/10 08:46:30;;;;;;;;;;;;;;;17.05;54.67;101260.06;5049611;28;1343;-61
2023/09/10 08:48:55;;;;;;;;;;;;;;;16.85;55.05;101261.56;5070712;28;1297;-65
2023/09/10 08:51:21;;;;;;;;;;;;;;;16.73;55.10;101267.25;5066666;28;1410;-58
2023/09/10 08:53:47;;;;;;;;;;;;;;;16.74;54.91;101249.66;5043456;28;1782;-60
2023/09/10 08:56:12;;;;;;;;;;;;;;;16.68;54.65;101261.69;5040220;28;1289;-59
2023/09/10 08:58:38;;;;;;;;;;;;;;;16.67;54.53;101265.53;5048127;28;1426;-57
2023/09/10 09:01:03;;;;;;;;;;;;;;;16.61;54.77;101266.59;5049894;28;1261;-61
2023/09/10 09:03:29;;;;;;;;;;;;;;;16.55;54.67;101259.38;5064984;28;1272;-58
2023/09/10 09:05:56;;;;;;;;;;;;;;;16.54;54.73;101266.81;5066577;28;1992;-59
2023/09/10 09:08:22;;;;;;;;;;;;;;;16.48;54.56;101261.53;5056088;28;1206;-57
2023/09/10 09:10:47;;;;;;;;;;;;;;;16.49;54.55;101266.75;5056194;28;1129;-59
2023/09/10 09:13:13;;;;;;;;;;;;;;;16.50;54.59;101270.34;5075611;28;1107;-59
2023/09/10 09:15:38;;;;;;;;;;;;;;;16.43;54.44;101265.88;5045655;28;1395;-60
2023/09/10 09:18:04;;;;;;;;;;;;;;;16.46;54.47;101270.03;5070262;28;1285;-60
2023/09/10 09:20:30;;;;;;;;;;;;;;;16.37;54.69;101266.94;5068842;28;1320;-58
2023/09/10 09:22:57;;;;;;;;;;;;;;;16.43;54.50;101270.56;5062286;28;1003;-56
2023/09/10 09:25:22;;;;;;;;;;;;;;;16.39;54.55;101272.97;5040546;28;2568;-56
2023/09/10 09:27:48;;;;;;;;;;;;;;;17.41;54.52;101269.34;5053000;28;1164;-56
2023/09/10 09:30:14;;;;;;;;;;;;;;;17.14;54.96;101268.63;5070039;28;1325;-58
2023/09/10 09:32:39;;;;;;;;;;;;;;;16.90;55.08;101269.03;5065600;28;1117;-58
2023/09/10 09:35:05;;;;;;;;;;;;;;;16.82;55.20;101277.75;5057280;28;1261;-59
2023/09/10 09:37:31;;;;;;;;;;;;;;;16.73;55.08;101266.41;5070219;28;1074;-61
2023/09/10 09:39:58;;;;;;;;;;;;;;;16.67;54.98;101271.03;5064474;28;1257;-59
2023/09/10 09:42:24;;;;;;;;;;;;;;;16.64;54.96;101271.56;5062862;28;1392;-57
2023/09/10 09:44:50;;;;;;;;;;;;;;;16.64;54.58;101266.06;5066638;28;1989;-58
2023/09/10 09:47:16;;;;;;;;;;;;;;;16.57;54.82;101251.72;5060458;28;1337;-58
2023/09/10 09:49:44;;;;;;;;;;;;;;;16.57;54.59;101268.19;5065550;28;1305;-58
2023/09/10 09:52:10;;;;;;;;;;;;;;;16.58;54.63;101265.19;5063356;28;1240;-60
2023/09/10 09:54:36;;;;;;;;;;;;;;;16.53;54.59;101256.09;5074570;28;1791;-59
2023/09/10 09:57:03;;;;;;;;;;;;;;;16.49;54.73;101258.50;5064232;28;1256;-59
2023/09/10 09:59:28;;;;;;;;;;;;;;;17.39;55.07;101268.81;5073413;28;857;-59
2023/09/10 10:01:55;;;;;;;;;;;;;;;17.26;55.18;101252.78;5070346;28;1038;-62
2023/09/10 10:04:22;;;;;;;;;;;;;;;17.02;55.39;101255.94;5066803;28;1976;-62
2023/09/10 10:06:48;;;;;;;;;;;;;;;16.91;55.39;101248.72;5061760;28;1157;-63
2023/09/10 10:09:14;;;;;;;;;;;;;;;16.84;55.09;101251.66;5063318;28;1110;-63
2023/09/10 10:11:40;;;;;;;;;;;;;;;16.79;55.02;101256.28;5065115;28;1134;-63
2023/09/10 10:14:05;;;;;;;;;;;;;;;16.74;54.83;101252.41;5064440;28;1011;-63
2023/09/10 10:16:31;;;;;;;;;;;;;;;16.74;54.65;101244.16;5072637;28;1242;-63
2023/09/10 10:18:57;;;;;;;;;;;;;;;16.70;54.81;101259.50;5059142;28;1126;-63
2023/09/10 10:21:23;;;;;;;;;;;;;;;16.64;55.03;101255.09;5072223;28;1143;-63
2023/09/10 10:23:49;;;;;;;;;;;;;;;16.65;55.06;101262.22;5069629;28;2373;-62
2023/09/10 10:26:14;;;;;;;;;;;;;;;16.62;54.98;101257.28;5072256;28;1909;-62
2023/09/10 10:28:40;;;;;;;;;;;;;;;16.60;54.64;101251.19;5053154;28;1130;-62
2023/09/10 10:31:14;;;;;;;;;;;;;;;16.56;54.81;101247.31;5060287;28;1496;-62
2023/09/10 10:33:41;;;;;;;;;;;;;;;16.53;54.79;101250.59;5058758;28;1104;-63
2023/09/10 10:36:14;;;;;;;;;;;;;;;16.56;54.78;101252.81;5057006;28;881;-62
2023/09/10 10:38:42;;;;;;;;;;;;;;;16.43;54.90;101238.44;5067418;28;1127;-64
2023/09/10 10:41:11;;;;;;;;;;;;;;;16.56;54.75;101250.06;5072091;28;1039;-63
2023/09/10 10:43:40;;;;;;;;;;;;;;;16.49;54.67;101252.22;5041193;28;1067;-64
2023/09/10 10:46:05;;;;;;;;;;;;;;;16.48;54.49;101261.53;5071876;28;1992;-64
2023/09/10 10:48:32;;;;;;;;;;;;;;;16.50;54.68;101256.63;5046425;28;949;-64
2023/09/10 10:50:58;;;;;;;;;;;;;;;16.47;54.53;101251.66;5071812;28;1154;-63
2023/09/10 10:53:24;;;;;;;;;;;;;;;16.45;54.48;101256.56;5058745;28;1122;-63
2023/09/10 10:55:55;;;;;;;;;;;;;;;17.54;54.72;101251.53;5077542;28;1017;-63
2023/09/10 10:58:21;;;;;;;;;;;;;;;17.32;55.30;101237.13;5060826;28;1182;-61
2023/09/10 11:00:53;;;;;;;;;;;;;;;17.02;55.77;101242.19;5053177;28;939;-62
2023/09/10 11:03:19;;;;;;;;;;;;;;;16.86;55.69;101240.44;5071707;28;1122;-62
2023/09/10 11:05:54;;;;;;;;;;;;;;;16.91;55.39;101232.22;5065817;28;1977;-62
2023/09/10 11:08:34;;;;;;;;;;;;;;;16.83;55.12;101235.44;5075726;28;1180;-64
2023/09/10 11:11:01;;;;;;;;;;;;;;;16.75;55.10;101228.53;5064472;28;1070;-60
2023/09/10 11:13:26;;;;;;;;;;;;;;;16.70;54.80;101225.75;5064998;28;1352;-59
2023/09/10 11:16:04;;;;;;;;;;;;;;;16.69;55.03;101229.56;5078195;28;1034;-66
2023/09/10 11:18:36;;;;;;;;;;;;;;;16.69;54.89;101213.94;5057802;28;1047;-61
2023/09/10 11:21:02;;;;;;;;;;;;;;;16.66;54.73;101228.19;5070979;28;944;-65
2023/09/10 11:23:28;;;;;;;;;;;;;;;16.57;55.00;101221.53;5065087;28;2296;-58
2023/09/10 11:25:57;;;;;;;;;;;;;;;16.62;54.56;101226.22;5070769;28;1980;-60
2023/09/10 11:28:41;;;;;;;;;;;;;;;16.56;54.61;101222.63;5048616;28;1349;-59
2023/09/10 11:31:25;;;;;;;;;;;;;;;16.57;54.71;101222.34;5072902;28;1046;-60
2023/09/10 11:33:51;;;;;;;;;;;;;;;16.51;54.89;101217.06;5071163;28;1083;-65
2023/09/10 11:36:16;;;;;;;;;;;;;;;16.57;54.39;101216.03;5040754;28;1280;-65
2023/09/10 11:38:41;;;;;;;;;;;;;;;16.50;54.71;101218.19;5051693;28;1186;-59
2023/09/10 11:41:07;;;;;;;;;;;;;;;16.51;54.68;101217.06;5064526;28;986;-59
2023/09/10 11:43:32;;;;;;;;;;;;;;;16.47;54.47;101208.56;5077035;28;1399;-60
2023/09/10 11:45:58;;;;;;;;;;;;;;;16.46;54.55;101203.31;5070404;28;1914;-60
2023/09/10 11:48:24;;;;;;;;;;;;;;;16.47;54.39;101205.00;5068710;28;1280;-61
2023/09/10 11:50:51;;;;;;;;;;;;;;;16.45;54.46;101207.97;5073585;28;1205;-61
2023/09/10 11:53:17;;;;;;;;;;;;;;;17.44;54.84;101210.25;5076441;28;1329;-61
2023/09/10 11:55:43;;;;;;;;;;;;;;;17.26;55.68;101206.06;5058787;28;2703;-62
2023/09/10 11:58:08;;;;;;;;;;;;;;;16.96;55.76;101206.69;5062777;28;1114;-62
2023/09/10 12:00:33;;;;;;;;;;;;;;;16.87;55.62;101204.44;5047099;28;892;-60
2023/09/10 12:02:59;;;;;;;;;;;;;;;16.82;55.39;101212.66;5074559;28;1448;-61
2023/09/10 12:05:25;;;;;;;;;;;;;;;16.76;55.22;101211.78;5059062;28;1898;-61
2023/09/10 12:07:50;;;;;;;;;;;;;;;16.74;55.16;101194.72;5072390;28;1011;-61
2023/09/10 12:10:16;;;;;;;;;;;;;;;16.71;54.82;101206.25;5056576;28;1015;-61
2023/09/10 12:12:42;;;;;;;;;;;;;;;16.68;54.83;101206.78;5049083;28;1023;-61
2023/09/10 12:15:07;;;;;;;;;;;;;;;16.62;54.77;101202.34;5067761;28;1110;-60
2023/09/10 12:17:33;;;;;;;;;;;;;;;16.66;54.55;101208.13;5041510;28;1035;-61
2023/09/10 12:19:58;;;;;;;;;;;;;;;16.63;54.51;101203.19;5057063;28;1008;-61
2023/09/10 12:22:24;;;;;;;;;;;;;;;16.56;54.47;101197.91;5069756;28;1037;-61
2023/09/10 12:24:49;;;;;;;;;;;;;;;16.55;54.47;101207.22;5052438;28;1978;-60
2023/09/10 12:27:15;;;;;;;;;;;;;;;16.51;54.57;101197.84;5054403;28;1058;-61
2023/09/10 12:29:40;;;;;;;;;;;;;;;16.52;54.60;101207.75;5039316;28;1099;-61
2023/09/10 12:32:06;;;;;;;;;;;;;;;16.50;54.66;101205.28;5055377;28;1035;-60
2023/09/10 12:34:32;;;;;;;;;;;;;;;16.46;54.69;101198.66;5074045;28;1074;-60
2023/09/10 12:36:57;;;;;;;;;;;;;;;16.42;54.80;101211.25;5070876;28;992;-64
2023/09/10 12:39:26;;;;;;;;;;;;;;;16.42;54.79;101200.25;5062961;28;1133;-63
2023/09/10 12:41:52;;;;;;;;;;;;;;;16.43;54.52;101200.00;5076578;28;1517;-63